Terminal Aerodrome Forecast
Issued by NWS Shreveport, LA

Home | Current Version | Previous Version | Text Only | Print | Product List | Glossary On
Versions: 1 2 3 4 5 6 7 8 9 10 11 12 13 14 15 16
259
FTUS44 KSHV 242340
TAFSHV
TAF
KSHV 242340Z 2500/2524 15012G15KT P6SM SCT035
     FM251000 18006KT 6SM BR BKN015
      TEMPO 2510/2513 3SM BR OVC007
     FM251500 17010KT P6SM SCT015 BKN100=

USA.gov is the U.S. government's official web portal to all federal, state and local government web resources and services.